Historyczne dane pomiarowe

Dodano dane terminowe – wersja testowa.

Dane z okresu 1951-2019

Wersja bazy: 1.34 [2019-03-16, lista zmian], aktualizacja planowana na 2019-04-15

Dane meteo z obszaru Polski uzyskane na podstawie danych udostępnionych przez Instytut Meteorologii i Gospodarki Wodnej – Państwowy Instytut Badawczy.

 

Wybierz Datę:    

       

TemperaturaWilgotnośćWiatrCiśnienieOpadyŚniegCzas trwania zjawisk
 Stacja t tx tn tng RH VA  wxwx mslp ppp RRR   cm mm wxwxwxwxwxwxwx
1961-08-14 4.7 6.9 1.9- 93.8- 5.3 9.3---- 0.5------------
1961-08-13 3.1 5.5 2.1-100.0- 7.0 7.3---- 3.9------------
1961-08-12 6.7 10.4 4.5- 89.3- 7.3 4.3---- 18.2------------
1961-08-11 11.0 15.9 9.9- 99.8- 8.0 8.7---- 14.2------------
1961-08-10 15.3 19.6 12.0- 88.5- 4.0 3.7---- 5.3------------
1961-08-09 13.1 15.5 11.0- 87.8- 7.0 1.7---- 0.5------------
1961-08-08 11.0 14.5 6.7- 93.5- 5.0 11.0---- 0.0------------
1961-08-07 8.8 15.5 7.6- 81.5- 7.3 4.7---- 3.0------------
1961-08-06 15.3 17.9 11.0- 72.0- 2.7 13.0---- 2.1------------
1961-08-05 10.4 12.0 7.0-100.0- 6.3 10.7---- 0.3------------
1961-08-04 5.6 7.1 3.4- 98.3- 7.0 12.7---- 3.5------------
1961-08-03 4.9 8.4 3.7- 98.8- 5.7 5.3---- 2.4------------
1961-08-02 8.5 10.8 6.3- 93.8- 4.0 8.0---- 1.8------------
1961-08-01 6.8 9.2 2.0- 78.8- 3.7 9.3---- 0.0------------
1961-07-31 3.8 4.7 3.4-100.0- 7.7 16.7---- 9.1------------
1961-07-30 3.1 3.7 1.6-100.0- 8.0 7.3---- 38.2------------
1961-07-29 2.6 7.6 1.7- 99.3- 7.3 6.7---- 0.0------------
1961-07-28 7.5 10.3 5.8-100.0- 8.0 13.0---- 30.8------------
1961-07-27 8.8 11.8 7.8-100.0- 7.7 16.0---- 18.5------------
1961-07-26 9.1 11.8 3.9- 77.3- 4.3 13.0---- 0.1------------
1961-07-25 3.4 5.0 0.8- 91.5- 5.3 4.3---- 0.0------------
1961-07-24 2.4 3.8 1.3- 99.5- 8.0 8.7---- 0.0------------
1961-07-23 3.7 4.8 2.6- 99.0- 6.3 6.7---- 0.1------------
1961-07-22 4.6 5.9 3.7- 99.3- 6.7 10.7---- 0.1------------
1961-07-21 4.7 5.7 4.4-100.0- 8.0 10.3---- 3.5------------
1961-07-20 5.1 7.9 3.8- 94.5- 7.7 6.7---- 6.6------------
1961-07-19 5.3 7.3 3.2- 89.0- 7.3 5.3---- 1.6------------
1961-07-18 4.4 6.1 3.0-100.0- 7.7 8.0---- 4.3------------
1961-07-17 2.9 5.3 1.6-100.0- 8.0 13.3---- 9.1------------
1961-07-16 5.5 7.5 4.1- 88.3- 5.0 7.3---- 1.7------------
1961-07-15 7.6 10.5 5.2- 93.8- 7.0 8.0---- 18.9------------
1961-07-14 4.2 6.5 0.7- 91.5- 7.3 17.3---- 3.8------------
1961-07-13 8.0 12.3 5.8-100.0- 8.0 15.0---- 5.2------------
1961-07-12 12.2 15.5 7.8- 90.0- 4.0 9.3---- 0.8------------
1961-07-11 8.4 11.1 2.8- 95.5- 7.3 10.0---- 12.6------------
1961-07-10 3.2 4.6 2.5- 92.8- 5.7 15.0---- 2.0------------
1961-07-09 4.1 7.1 2.3-100.0- 7.7 10.7---- 10.6------------
1961-07-08 6.6 8.5 1.9- 72.0- 3.3 4.7---- 2.0------------
1961-07-07 2.2 5.1 0.2- 92.0- 6.3 6.0---- 0.0------------
1961-07-06 0.9 2.4 -1.1- 99.8- 8.0 8.0---- 0.1------------
1961-07-05 1.0 4.8 -1.4- 95.8- 7.3 16.0---- 1.4------------
1961-07-04 8.3 16.2 4.4- 93.3- 6.3 17.7---- 0.0------------
1961-07-03 15.7 19.1 13.8- 59.3- 2.3 5.0---- 0.0------------
1961-07-02 15.6 19.4 12.1- 67.0- 1.3 4.0---- 0.0------------
1961-07-01 14.3 18.4 10.5- 71.5- 1.0 0.3---- 0.0------------
1961-06-30 11.9 15.1 6.9- 70.8- 0.3 1.3---- 0.0------------
1961-06-29 7.1 10.4 2.9- 78.0- 3.7 7.3---- 0.0------------
1961-06-28 2.8 11.5 0.6- 93.3- 4.7 13.3---- 0.0------------
1961-06-27 12.5 15.3 10.8- 93.3- 7.3 10.7---- 9.9------------
1961-06-26 13.1 15.7 12.7- 84.5- 6.0 4.0---- 0.7------------
1961-06-25 14.3 17.0 10.3- 62.0- 0.7 7.7---- 0.0------------
1961-06-24 11.2 15.6 7.5- 71.0- 4.3 8.0---- 0.0------------
1961-06-23 8.9 12.3 6.1- 81.0- 2.3 9.0---- 0.0------------
1961-06-22 10.3 14.1 4.3- 92.8- 5.3 12.0---- 4.6------------
1961-06-21 6.2 11.2 4.2- 89.3- 5.7 7.3---- 0.0------------
1961-06-20 4.8 7.7 1.4- 94.3- 2.3 6.0---- 0.0------------
1961-06-19 7.2 13.0 4.0- 97.8- 5.3 10.7---- 2.6------------
1961-06-18 11.9 13.9 8.5- 78.8- 0.3 9.3---- 0.0------------
1961-06-17 7.8 11.2 3.4- 75.0- 3.7 5.0---- 0.0------------
1961-06-16 5.5 8.6 0.3- 71.3- 2.7 5.7---- 0.0------------
281.8 ms

 

Źródłem pochodzenia danych jest Instytut Meteorologii i Gospodarki Wodnej – Państwowy Instytut Badawczy. Dane Instytutu Meteorologii i Gospodarki Wodnej – Państwowego Instytutu Badawczego zostały przetworzone.

Dane źródłowe można odnaleźć na stronie https://dane.imgw.pl